sensor_id;sensor_type;location;lat;lon;timestamp;pressure;altitude;pressure_sealevel;temperature;humidity
61472;BME280;47337;54.068;12.114;2023-05-24T00:02:03;101311.47;;;10.85;100.00
61472;BME280;47337;54.068;12.114;2023-05-24T00:04:31;101312.41;;;10.88;100.00
61472;BME280;47337;54.068;12.114;2023-05-24T00:06:56;101312.41;;;10.88;100.00
61472;BME280;47337;54.068;12.114;2023-05-24T00:09:22;101312.50;;;10.94;100.00
61472;BME280;47337;54.068;12.114;2023-05-24T00:11:52;101308.03;;;10.89;100.00
61472;BME280;47337;54.068;12.114;2023-05-24T00:14:18;101314.97;;;10.85;100.00
61472;BME280;47337;54.068;12.114;2023-05-24T00:16:43;101316.66;;;10.82;100.00
61472;BME280;47337;54.068;12.114;2023-05-24T00:19:10;101323.47;;;10.72;100.00
61472;BME280;47337;54.068;12.114;2023-05-24T00:21:46;101335.03;;;10.80;100.00
61472;BME280;47337;54.068;12.114;2023-05-24T00:24:12;101329.81;;;10.83;100.00
61472;BME280;47337;54.068;12.114;2023-05-24T00:26:37;101328.78;;;10.75;100.00
61472;BME280;47337;54.068;12.114;2023-05-24T00:29:02;101331.31;;;10.69;100.00
61472;BME280;47337;54.068;12.114;2023-05-24T00:31:30;101327.97;;;10.78;100.00
61472;BME280;47337;54.068;12.114;2023-05-24T00:33:58;101334.84;;;10.71;100.00
61472;BME280;47337;54.068;12.114;2023-05-24T00:36:24;101329.31;;;10.56;100.00
61472;BME280;47337;54.068;12.114;2023-05-24T00:38:53;101332.72;;;10.52;100.00
61472;BME280;47337;54.068;12.114;2023-05-24T00:41:21;101336.19;;;10.51;100.00
61472;BME280;47337;54.068;12.114;2023-05-24T00:43:50;101336.25;;;10.54;100.00
61472;BME280;47337;54.068;12.114;2023-05-24T00:46:24;101337.09;;;10.51;100.00
61472;BME280;47337;54.068;12.114;2023-05-24T00:48:51;101341.41;;;10.48;100.00
61472;BME280;47337;54.068;12.114;2023-05-24T00:51:17;101336.13;;;10.46;100.00
61472;BME280;47337;54.068;12.114;2023-05-24T00:53:51;101337.03;;;10.50;100.00
61472;BME280;47337;54.068;12.114;2023-05-24T00:56:17;101337.91;;;10.49;100.00
61472;BME280;47337;54.068;12.114;2023-05-24T00:58:44;101340.59;;;10.52;100.00
61472;BME280;47337;54.068;12.114;2023-05-24T01:01:10;101339.66;;;10.50;100.00
61472;BME280;47337;54.068;12.114;2023-05-24T01:03:36;101335.94;;;10.39;100.00
61472;BME280;47337;54.068;12.114;2023-05-24T01:06:07;101343.03;;;10.43;100.00
61472;BME280;47337;54.068;12.114;2023-05-24T01:08:38;101329.00;;;10.41;100.00
61472;BME280;47337;54.068;12.114;2023-05-24T01:16:57;101330.84;;;10.45;100.00
61472;BME280;47337;54.068;12.114;2023-05-24T01:28:04;101331.84;;;10.51;100.00
61472;BME280;47337;54.068;12.114;2023-05-24T01:30:32;101330.13;;;10.53;100.00
61472;BME280;47337;54.068;12.114;2023-05-24T01:32:58;101333.59;;;10.52;100.00
61472;BME280;47337;54.068;12.114;2023-05-24T01:35:24;101336.16;;;10.49;100.00
61472;BME280;47337;54.068;12.114;2023-05-24T01:37:49;101340.53;;;10.47;100.00
61472;BME280;47337;54.068;12.114;2023-05-24T01:40:17;101333.63;;;10.54;100.00
61472;BME280;47337;54.068;12.114;2023-05-24T01:48:26;101343.34;;;10.59;100.00
61472;BME280;47337;54.068;12.114;2023-05-24T01:51:00;101349.50;;;10.60;100.00
61472;BME280;47337;54.068;12.114;2023-05-24T01:53:32;101354.84;;;10.64;100.00
61472;BME280;47337;54.068;12.114;2023-05-24T01:56:07;101349.56;;;10.63;100.00
61472;BME280;47337;54.068;12.114;2023-05-24T01:58:36;101359.16;;;10.61;100.00
61472;BME280;47337;54.068;12.114;2023-05-24T02:01:09;101355.75;;;10.65;100.00
61472;BME280;47337;54.068;12.114;2023-05-24T02:03:37;101353.97;;;10.64;100.00
61472;BME280;47337;54.068;12.114;2023-05-24T02:06:03;101357.47;;;10.64;100.00
61472;BME280;47337;54.068;12.114;2023-05-24T02:08:29;101358.38;;;10.65;100.00
61472;BME280;47337;54.068;12.114;2023-05-24T02:10:57;101351.41;;;10.67;100.00
61472;BME280;47337;54.068;12.114;2023-05-24T02:13:24;101354.03;;;10.67;100.00
61472;BME280;47337;54.068;12.114;2023-05-24T02:15:50;101357.53;;;10.68;100.00
61472;BME280;47337;54.068;12.114;2023-05-24T02:18:18;101355.81;;;10.68;100.00
61472;BME280;47337;54.068;12.114;2023-05-24T02:20:46;101361.84;;;10.64;100.00
61472;BME280;47337;54.068;12.114;2023-05-24T02:23:15;101360.91;;;10.62;100.00
61472;BME280;47337;54.068;12.114;2023-05-24T02:25:45;101356.72;;;10.72;100.00
61472;BME280;47337;54.068;12.114;2023-05-24T02:28:10;101369.78;;;10.67;100.00
61472;BME280;47337;54.068;12.114;2023-05-24T02:30:36;101362.75;;;10.66;100.00
61472;BME280;47337;54.068;12.114;2023-05-24T02:33:04;101373.38;;;10.72;100.00
61472;BME280;47337;54.068;12.114;2023-05-24T02:35:29;101376.06;;;10.75;100.00
61472;BME280;47337;54.068;12.114;2023-05-24T02:37:57;101370.03;;;10.79;100.00
61472;BME280;47337;54.068;12.114;2023-05-24T02:40:25;101370.91;;;10.81;100.00
61472;BME280;47337;54.068;12.114;2023-05-24T02:42:51;101374.44;;;10.82;100.00
61472;BME280;47337;54.068;12.114;2023-05-24T02:45:18;101378.94;;;10.87;100.00
61472;BME280;47337;54.068;12.114;2023-05-24T02:47:46;101379.75;;;10.85;100.00
61472;BME280;47337;54.068;12.114;2023-05-24T02:50:12;101380.66;;;10.87;100.00
61472;BME280;47337;54.068;12.114;2023-05-24T02:52:37;101381.63;;;10.92;100.00
61472;BME280;47337;54.068;12.114;2023-05-24T02:55:02;101385.13;;;10.91;100.00
61472;BME280;47337;54.068;12.114;2023-05-24T02:57:28;101378.09;;;10.91;100.00
61472;BME280;47337;54.068;12.114;2023-05-24T02:59:53;101385.97;;;10.88;100.00
61472;BME280;47337;54.068;12.114;2023-05-24T03:02:20;101380.69;;;10.88;100.00
61472;BME280;47337;54.068;12.114;2023-05-24T03:04:49;101386.84;;;10.89;100.00
61472;BME280;47337;54.068;12.114;2023-05-24T03:07:15;101385.91;;;10.87;100.00
61472;BME280;47337;54.068;12.114;2023-05-24T03:09:41;101389.44;;;10.87;100.00
61472;BME280;47337;54.068;12.114;2023-05-24T03:12:08;101387.66;;;10.86;100.00
61472;BME280;47337;54.068;12.114;2023-05-24T03:14:33;101386.75;;;10.84;100.00
61472;BME280;47337;54.068;12.114;2023-05-24T03:16:59;101385.81;;;10.82;100.00
61472;BME280;47337;54.068;12.114;2023-05-24T03:19:26;101391.03;;;10.81;100.00
61472;BME280;47337;54.068;12.114;2023-05-24T03:21:54;101388.41;;;10.79;100.00
61472;BME280;47337;54.068;12.114;2023-05-24T03:24:19;101392.06;;;10.87;100.00
61472;BME280;47337;54.068;12.114;2023-05-24T03:26:45;101396.31;;;10.82;100.00
61472;BME280;47337;54.068;12.114;2023-05-24T03:29:10;101392.00;;;10.84;100.00
61472;BME280;47337;54.068;12.114;2023-05-24T03:31:36;101390.28;;;10.86;100.00
61472;BME280;47337;54.068;12.114;2023-05-24T03:34:01;101393.88;;;10.90;100.00
61472;BME280;47337;54.068;12.114;2023-05-24T03:36:29;101394.75;;;10.92;100.00
61472;BME280;47337;54.068;12.114;2023-05-24T03:39:00;101400.94;;;10.94;100.00
61472;BME280;47337;54.068;12.114;2023-05-24T03:41:30;101407.13;;;10.97;100.00
61472;BME280;47337;54.068;12.114;2023-05-24T03:43:55;101401.06;;;11.00;100.00
61472;BME280;47337;54.068;12.114;2023-05-24T03:46:20;101400.16;;;10.98;100.00
61472;BME280;47337;54.068;12.114;2023-05-24T03:48:47;101396.72;;;11.04;100.00
61472;BME280;47337;54.068;12.114;2023-05-24T03:51:12;101403.81;;;11.08;100.00
61472;BME280;47337;54.068;12.114;2023-05-24T03:53:38;101402.16;;;11.13;100.00
61472;BME280;47337;54.068;12.114;2023-05-24T03:56:03;101406.75;;;11.24;100.00
61472;BME280;47337;54.068;12.114;2023-05-24T03:58:29;101408.50;;;11.25;100.00
61472;BME280;47337;54.068;12.114;2023-05-24T04:00:57;101412.19;;;11.33;100.00
61472;BME280;47337;54.068;12.114;2023-05-24T04:03:22;101414.09;;;11.42;100.00
61472;BME280;47337;54.068;12.114;2023-05-24T04:05:50;101408.88;;;11.47;100.00
61472;BME280;47337;54.068;12.114;2023-05-24T04:08:16;101400.88;;;11.39;100.00
61472;BME280;47337;54.068;12.114;2023-05-24T04:10:41;101401.16;;;11.54;100.00
61472;BME280;47337;54.068;12.114;2023-05-24T04:13:07;101397.94;;;11.73;100.00
61472;BME280;47337;54.068;12.114;2023-05-24T04:15:33;101389.41;;;11.87;100.00
61472;BME280;47337;54.068;12.114;2023-05-24T04:17:58;101376.38;;;11.94;100.00
61472;BME280;47337;54.068;12.114;2023-05-24T04:20:24;101378.00;;;11.88;100.00
61472;BME280;47337;54.068;12.114;2023-05-24T04:22:52;101379.00;;;11.94;100.00
61472;BME280;47337;54.068;12.114;2023-05-24T04:25:18;101377.25;;;11.95;100.00
61472;BME280;47337;54.068;12.114;2023-05-24T04:27:44;101372.91;;;11.98;100.00
61472;BME280;47337;54.068;12.114;2023-05-24T04:30:12;101377.28;;;11.98;100.00
61472;BME280;47337;54.068;12.114;2023-05-24T04:32:38;101383.59;;;12.09;100.00
61472;BME280;47337;54.068;12.114;2023-05-24T04:35:05;101386.38;;;12.18;100.00
61472;BME280;47337;54.068;12.114;2023-05-24T04:37:32;101383.06;;;12.34;100.00
61472;BME280;47337;54.068;12.114;2023-05-24T04:39:57;101376.13;;;12.39;100.00
61472;BME280;47337;54.068;12.114;2023-05-24T04:42:23;101375.84;;;12.18;100.00
61472;BME280;47337;54.068;12.114;2023-05-24T04:44:48;101385.34;;;12.07;100.00
61472;BME280;47337;54.068;12.114;2023-05-24T04:47:13;101387.97;;;12.10;100.00
61472;BME280;47337;54.068;12.114;2023-05-24T04:49:41;101386.06;;;11.97;100.00
61472;BME280;47337;54.068;12.114;2023-05-24T04:52:11;101394.91;;;12.03;100.00
61472;BME280;47337;54.068;12.114;2023-05-24T04:54:39;101396.06;;;12.22;100.00
61472;BME280;47337;54.068;12.114;2023-05-24T04:57:04;101398.75;;;12.25;100.00
61472;BME280;47337;54.068;12.114;2023-05-24T04:59:30;101397.81;;;12.22;100.00
61472;BME280;47337;54.068;12.114;2023-05-24T05:01:55;101401.44;;;12.31;100.00
61472;BME280;47337;54.068;12.114;2023-05-24T05:04:21;101403.31;;;12.38;100.00
61472;BME280;47337;54.068;12.114;2023-05-24T05:06:49;101403.38;;;12.44;100.00
61472;BME280;47337;54.068;12.114;2023-05-24T05:09:17;101399.81;;;12.39;100.00
61472;BME280;47337;54.068;12.114;2023-05-24T05:11:45;101404.16;;;12.37;100.00
61472;BME280;47337;54.068;12.114;2023-05-24T05:14:10;101410.38;;;12.42;100.00
61472;BME280;47337;54.068;12.114;2023-05-24T05:16:36;101411.16;;;12.35;100.00
61472;BME280;47337;54.068;12.114;2023-05-24T05:19:05;101408.56;;;12.38;100.00
61472;BME280;47337;54.068;12.114;2023-05-24T05:21:31;101413.72;;;12.31;100.00
61472;BME280;47337;54.068;12.114;2023-05-24T05:24:00;101419.75;;;12.22;100.00
61472;BME280;47337;54.068;12.114;2023-05-24T05:26:28;101429.47;;;12.26;100.00
61472;BME280;47337;54.068;12.114;2023-05-24T05:28:55;101426.91;;;12.32;100.00
61472;BME280;47337;54.068;12.114;2023-05-24T05:31:22;101424.97;;;12.19;100.00
61472;BME280;47337;54.068;12.114;2023-05-24T05:33:47;101435.50;;;12.19;100.00
61472;BME280;47337;54.068;12.114;2023-05-24T05:36:13;101432.84;;;12.16;100.00
61472;BME280;47337;54.068;12.114;2023-05-24T05:38:38;101441.78;;;12.27;100.00
61472;BME280;47337;54.068;12.114;2023-05-24T05:41:09;101444.34;;;12.24;100.00
61472;BME280;47337;54.068;12.114;2023-05-24T05:43:37;101449.91;;;12.45;100.00
61472;BME280;47337;54.068;12.114;2023-05-24T05:46:05;101450.91;;;12.55;100.00
61472;BME280;47337;54.068;12.114;2023-05-24T05:48:31;101451.25;;;12.81;100.00
61472;BME280;47337;54.068;12.114;2023-05-24T05:50:59;101440.03;;;12.97;100.00
61472;BME280;47337;54.068;12.114;2023-05-24T05:53:24;101429.69;;;13.14;100.00
61472;BME280;47337;54.068;12.114;2023-05-24T05:55:49;101430.47;;;13.07;100.00
61472;BME280;47337;54.068;12.114;2023-05-24T05:58:20;101424.13;;;12.90;100.00
61472;BME280;47337;54.068;12.114;2023-05-24T06:00:45;101435.34;;;12.73;100.00
61472;BME280;47337;54.068;12.114;2023-05-24T06:03:10;101453.69;;;12.66;100.00
61472;BME280;47337;54.068;12.114;2023-05-24T06:05:38;101458.88;;;12.61;100.00
61472;BME280;47337;54.068;12.114;2023-05-24T06:08:04;101470.28;;;12.59;100.00
61472;BME280;47337;54.068;12.114;2023-05-24T06:10:31;101474.66;;;12.57;100.00
61472;BME280;47337;54.068;12.114;2023-05-24T06:12:57;101481.78;;;12.65;100.00
61472;BME280;47337;54.068;12.114;2023-05-24T06:15:22;101489.72;;;12.67;100.00
61472;BME280;47337;54.068;12.114;2023-05-24T06:17:49;101494.25;;;12.77;100.00
61472;BME280;47337;54.068;12.114;2023-05-24T06:20:15;101482.84;;;12.79;100.00
61472;BME280;47337;54.068;12.114;2023-05-24T06:22:41;101485.59;;;12.89;100.00
61472;BME280;47337;54.068;12.114;2023-05-24T06:25:10;101489.31;;;13.03;100.00
61472;BME280;47337;54.068;12.114;2023-05-24T06:27:38;101489.50;;;13.19;100.00
61472;BME280;47337;54.068;12.114;2023-05-24T06:30:04;101486.16;;;13.33;100.00
61472;BME280;47337;54.068;12.114;2023-05-24T06:32:30;101486.31;;;13.49;100.00
61472;BME280;47337;54.068;12.114;2023-05-24T06:34:56;101469.69;;;13.60;100.00
61472;BME280;47337;54.068;12.114;2023-05-24T06:37:21;101476.91;;;13.80;100.00
61472;BME280;47337;54.068;12.114;2023-05-24T06:39:49;101462.28;;;14.22;100.00
61472;BME280;47337;54.068;12.114;2023-05-24T06:42:15;101452.75;;;14.39;100.00
61472;BME280;47337;54.068;12.114;2023-05-24T06:44:43;101435.34;;;14.91;100.00
61472;BME280;47337;54.068;12.114;2023-05-24T06:47:11;101416.03;;;15.23;100.00
61472;BME280;47337;54.068;12.114;2023-05-24T06:49:37;101384.28;;;15.23;100.00
61472;BME280;47337;54.068;12.114;2023-05-24T06:52:06;101379.00;;;15.39;100.00
61472;BME280;47337;54.068;12.114;2023-05-24T06:54:35;101370.22;;;15.74;100.00
61472;BME280;47337;54.068;12.114;2023-05-24T06:57:03;101342.81;;;15.84;100.00
61472;BME280;47337;54.068;12.114;2023-05-24T06:59:29;101350.75;;;15.96;100.00
61472;BME280;47337;54.068;12.114;2023-05-24T07:01:54;101334.03;;;15.78;100.00
61472;BME280;47337;54.068;12.114;2023-05-24T07:04:25;101341.09;;;15.65;100.00
61472;BME280;47337;54.068;12.114;2023-05-24T07:06:52;101352.50;;;15.97;100.00
61472;BME280;47337;54.068;12.114;2023-05-24T07:09:18;101356.91;;;15.89;100.00
61472;BME280;47337;54.068;12.114;2023-05-24T07:11:44;101341.03;;;15.89;100.00
61472;BME280;47337;54.068;12.114;2023-05-24T07:14:12;101326.97;;;15.69;100.00
61472;BME280;47337;54.068;12.114;2023-05-24T07:16:37;101323.41;;;15.79;100.00
61472;BME280;47337;54.068;12.114;2023-05-24T07:19:03;101320.75;;;15.85;100.00
61472;BME280;47337;54.068;12.114;2023-05-24T07:21:28;101320.78;;;15.47;100.00
61472;BME280;47337;54.068;12.114;2023-05-24T07:23:56;101326.09;;;15.73;100.00
61472;BME280;47337;54.068;12.114;2023-05-24T07:26:22;101325.09;;;16.10;99.17
61472;BME280;47337;54.068;12.114;2023-05-24T07:28:50;101306.63;;;15.98;97.24
61472;BME280;47337;54.068;12.114;2023-05-24T07:31:15;101300.44;;;15.90;96.19
61472;BME280;47337;54.068;12.114;2023-05-24T07:33:43;101279.84;;;16.62;94.32
61472;BME280;47337;54.068;12.114;2023-05-24T07:36:08;101271.91;;;16.52;92.77
61472;BME280;47337;54.068;12.114;2023-05-24T07:38:34;101261.47;;;16.23;91.63
61472;BME280;47337;54.068;12.114;2023-05-24T07:41:01;101264.88;;;16.46;91.25
61472;BME280;47337;54.068;12.114;2023-05-24T07:43:28;101268.53;;;16.24;91.11
61472;BME280;47337;54.068;12.114;2023-05-24T07:45:55;101267.69;;;16.19;91.24
61472;BME280;47337;54.068;12.114;2023-05-24T07:48:24;101256.16;;;16.26;90.21
61472;BME280;47337;54.068;12.114;2023-05-24T07:50:52;101254.56;;;15.88;89.85
61472;BME280;47337;54.068;12.114;2023-05-24T07:53:20;101275.41;;;16.54;89.84
61472;BME280;47337;54.068;12.114;2023-05-24T07:55:48;101234.66;;;16.76;87.33
61472;BME280;47337;54.068;12.114;2023-05-24T07:58:17;101209.06;;;16.70;86.17
61472;BME280;47337;54.068;12.114;2023-05-24T08:00:45;101215.38;;;17.52;85.33
61472;BME280;47337;54.068;12.114;2023-05-24T08:03:10;101177.06;;;17.77;82.51
61472;BME280;47337;54.068;12.114;2023-05-24T08:05:41;101164.88;;;17.56;81.42
61472;BME280;47337;54.068;12.114;2023-05-24T08:08:08;101146.91;;;17.03;80.59
61472;BME280;47337;54.068;12.114;2023-05-24T08:10:34;101155.25;;;16.62;80.66
61472;BME280;47337;54.068;12.114;2023-05-24T08:13:00;101164.84;;;16.74;80.36
61472;BME280;47337;54.068;12.114;2023-05-24T08:15:25;101181.69;;;16.70;81.15
61472;BME280;47337;54.068;12.114;2023-05-24T08:17:51;101188.78;;;16.60;81.47
61472;BME280;47337;54.068;12.114;2023-05-24T08:20:19;101227.81;;;16.37;82.82
61472;BME280;47337;54.068;12.114;2023-05-24T08:22:49;101228.59;;;16.54;82.81
61472;BME280;47337;54.068;12.114;2023-05-24T08:25:15;101231.19;;;16.63;82.54
61472;BME280;47337;54.068;12.114;2023-05-24T08:27:40;101221.38;;;16.76;81.97
61472;BME280;47337;54.068;12.114;2023-05-24T08:30:07;101209.09;;;16.67;81.21
61472;BME280;47337;54.068;12.114;2023-05-24T08:32:35;101229.66;;;16.23;82.26
61472;BME280;47337;54.068;12.114;2023-05-24T08:35:00;101255.41;;;15.93;83.67
61472;BME280;47337;54.068;12.114;2023-05-24T08:37:26;101266.13;;;15.42;84.20
61472;BME280;47337;54.068;12.114;2023-05-24T08:39:54;101269.66;;;15.30;84.28
61472;BME280;47337;54.068;12.114;2023-05-24T08:42:24;101281.13;;;15.55;84.56
61472;BME280;47337;54.068;12.114;2023-05-24T08:44:52;101269.66;;;15.24;84.60
61472;BME280;47337;54.068;12.114;2023-05-24T08:47:22;101301.38;;;15.59;85.04
61472;BME280;47337;54.068;12.114;2023-05-24T08:49:52;101270.50;;;15.36;84.09
61472;BME280;47337;54.068;12.114;2023-05-24T08:52:18;101293.47;;;15.63;84.10
61472;BME280;47337;54.068;12.114;2023-05-24T08:54:45;101289.03;;;15.62;84.22
61472;BME280;47337;54.068;12.114;2023-05-24T08:57:15;101268.75;;;15.60;83.42
61472;BME280;47337;54.068;12.114;2023-05-24T08:59:41;101287.25;;;15.73;83.68
61472;BME280;47337;54.068;12.114;2023-05-24T09:02:08;101272.19;;;15.95;82.41
61472;BME280;47337;54.068;12.114;2023-05-24T09:04:38;101241.03;;;16.44;80.64
61472;BME280;47337;54.068;12.114;2023-05-24T09:07:06;101217.06;;;16.61;79.74
61472;BME280;47337;54.068;12.114;2023-05-24T09:09:33;101168.31;;;16.82;77.28
61472;BME280;47337;54.068;12.114;2023-05-24T09:12:01;101141.59;;;17.03;75.82
61472;BME280;47337;54.068;12.114;2023-05-24T09:14:28;101147.41;;;17.37;75.58
61472;BME280;47337;54.068;12.114;2023-05-24T09:16:58;101101.34;;;17.41;73.18
61472;BME280;47337;54.068;12.114;2023-05-24T09:19:27;101090.09;;;17.23;72.80
61472;BME280;47337;54.068;12.114;2023-05-24T09:21:55;101067.06;;;17.25;71.65
61472;BME280;47337;54.068;12.114;2023-05-24T09:24:22;101078.31;;;17.43;71.42
61472;BME280;47337;54.068;12.114;2023-05-24T09:26:50;101076.31;;;17.64;71.02
61472;BME280;47337;54.068;12.114;2023-05-24T09:29:15;101084.72;;;17.93;71.21
61472;BME280;47337;54.068;12.114;2023-05-24T09:31:45;101049.53;;;17.11;70.76
61472;BME280;47337;54.068;12.114;2023-05-24T09:34:14;101088.47;;;17.09;71.66
61472;BME280;47337;54.068;12.114;2023-05-24T09:36:40;101116.81;;;17.04;72.46
61472;BME280;47337;54.068;12.114;2023-05-24T09:39:10;101117.88;;;16.88;72.59
61472;BME280;47337;54.068;12.114;2023-05-24T09:41:37;101119.44;;;17.06;72.27
61472;BME280;47337;54.068;12.114;2023-05-24T09:44:03;101122.84;;;17.17;72.42
61472;BME280;47337;54.068;12.114;2023-05-24T09:46:35;101086.56;;;17.22;70.78
61472;BME280;47337;54.068;12.114;2023-05-24T09:49:02;101067.72;;;17.40;69.77
61472;BME280;47337;54.068;12.114;2023-05-24T09:51:28;101071.75;;;17.72;69.51
61472;BME280;47337;54.068;12.114;2023-05-24T09:54:00;101055.41;;;18.01;68.53
61472;BME280;47337;54.068;12.114;2023-05-24T09:56:26;101064.72;;;17.69;69.11
61472;BME280;47337;54.068;12.114;2023-05-24T09:58:52;101140.63;;;17.09;72.53
61472;BME280;47337;54.068;12.114;2023-05-24T10:01:23;101179.91;;;16.72;74.30
61472;BME280;47337;54.068;12.114;2023-05-24T10:03:54;101210.78;;;16.76;75.32
61472;BME280;47337;54.068;12.114;2023-05-24T10:06:21;101243.41;;;16.89;76.16
61472;BME280;47337;54.068;12.114;2023-05-24T10:08:49;101205.34;;;16.93;74.65
61472;BME280;47337;54.068;12.114;2023-05-24T10:11:18;101206.47;;;16.61;74.83
61472;BME280;47337;54.068;12.114;2023-05-24T10:13:43;101198.31;;;16.89;74.26
61472;BME280;47337;54.068;12.114;2023-05-24T10:16:09;101194.66;;;17.00;73.54
61472;BME280;47337;54.068;12.114;2023-05-24T10:18:35;101155.31;;;17.40;71.78
61472;BME280;47337;54.068;12.114;2023-05-24T10:21:01;101134.44;;;17.85;70.49
61472;BME280;47337;54.068;12.114;2023-05-24T10:23:35;101107.47;;;18.12;68.75
61472;BME280;47337;54.068;12.114;2023-05-24T10:26:08;101071.88;;;17.66;68.19
61472;BME280;47337;54.068;12.114;2023-05-24T10:28:46;101082.84;;;18.01;68.05
61472;BME280;47337;54.068;12.114;2023-05-24T10:31:17;101100.16;;;18.26;68.44
61472;BME280;47337;54.068;12.114;2023-05-24T10:33:46;101122.97;;;18.43;68.74
61472;BME280;47337;54.068;12.114;2023-05-24T10:36:13;101152.41;;;18.29;70.08
61472;BME280;47337;54.068;12.114;2023-05-24T10:38:40;101087.09;;;19.14;66.45
61472;BME280;47337;54.068;12.114;2023-05-24T10:41:07;101076.53;;;19.93;65.31
61472;BME280;47337;54.068;12.114;2023-05-24T10:43:36;101041.00;;;19.92;64.18
61472;BME280;47337;54.068;12.114;2023-05-24T10:46:03;101049.34;;;19.37;64.74
61472;BME280;47337;54.068;12.114;2023-05-24T10:48:35;101053.03;;;19.30;64.67
61472;BME280;47337;54.068;12.114;2023-05-24T10:51:30;101032.22;;;19.89;63.62
61472;BME280;47337;54.068;12.114;2023-05-24T10:54:15;101043.91;;;20.20;63.47
61472;BME280;47337;54.068;12.114;2023-05-24T10:56:46;101022.22;;;20.34;62.47
61472;BME280;47337;54.068;12.114;2023-05-24T10:59:41;101026.06;;;20.58;62.24
61472;BME280;47337;54.068;12.114;2023-05-24T11:02:11;101003.06;;;20.54;61.29
61472;BME280;47337;54.068;12.114;2023-05-24T11:04:45;101008.38;;;19.83;62.39
61472;BME280;47337;54.068;12.114;2023-05-24T11:07:12;101070.16;;;18.72;65.10
61472;BME280;47337;54.068;12.114;2023-05-24T11:09:39;101089.75;;;18.68;65.61
61472;BME280;47337;54.068;12.114;2023-05-24T11:12:16;101089.66;;;18.20;66.21
61472;BME280;47337;54.068;12.114;2023-05-24T11:14:47;101109.72;;;18.40;66.21
61472;BME280;47337;54.068;12.114;2023-05-24T11:17:13;101108.47;;;18.05;67.12
61472;BME280;47337;54.068;12.114;2023-05-24T11:19:46;101140.63;;;18.44;67.49
61472;BME280;47337;54.068;12.114;2023-05-24T11:22:13;101133.03;;;18.76;66.82
61472;BME280;47337;54.068;12.114;2023-05-24T11:24:40;101120.16;;;19.02;66.02
61472;BME280;47337;54.068;12.114;2023-05-24T11:27:10;101128.41;;;18.87;66.28
61472;BME280;47337;54.068;12.114;2023-05-24T11:29:40;101110.59;;;19.37;65.38
61472;BME280;47337;54.068;12.114;2023-05-24T11:32:05;101115.38;;;19.64;65.13
61472;BME280;47337;54.068;12.114;2023-05-24T11:34:34;101077.25;;;20.01;63.47
61472;BME280;47337;54.068;12.114;2023-05-24T11:37:02;101040.22;;;19.89;62.31
61472;BME280;47337;54.068;12.114;2023-05-24T11:39:30;101014.81;;;19.34;62.75
61472;BME280;47337;54.068;12.114;2023-05-24T11:41:57;101044.53;;;19.13;63.45
61472;BME280;47337;54.068;12.114;2023-05-24T11:44:22;101065.25;;;19.40;63.52
61472;BME280;47337;54.068;12.114;2023-05-24T11:47:00;101048.75;;;20.03;62.17
61472;BME280;47337;54.068;12.114;2023-05-24T11:49:28;101036.66;;;20.61;60.63
61472;BME280;47337;54.068;12.114;2023-05-24T11:52:00;101040.94;;;19.95;61.69
61472;BME280;47337;54.068;12.114;2023-05-24T11:54:28;101058.59;;;20.01;61.95
61472;BME280;47337;54.068;12.114;2023-05-24T11:56:56;101036.28;;;19.26;62.09
61472;BME280;47337;54.068;12.114;2023-05-24T11:59:24;101079.69;;;19.71;62.52
61472;BME280;47337;54.068;12.114;2023-05-24T12:02:04;101049.50;;;19.71;61.70
61472;BME280;47337;54.068;12.114;2023-05-24T12:04:31;101066.97;;;19.84;61.82
61472;BME280;47337;54.068;12.114;2023-05-24T12:06:57;101055.13;;;18.70;62.76
61472;BME280;47337;54.068;12.114;2023-05-24T12:09:26;101095.75;;;18.25;63.93
61472;BME280;47337;54.068;12.114;2023-05-24T12:11:54;101120.56;;;18.24;64.76
61472;BME280;47337;54.068;12.114;2023-05-24T12:14:24;101129.97;;;17.88;65.23
61472;BME280;47337;54.068;12.114;2023-05-24T12:16:53;101170.56;;;18.00;65.85
61472;BME280;47337;54.068;12.114;2023-05-24T12:19:20;101149.19;;;18.07;65.22
61472;BME280;47337;54.068;12.114;2023-05-24T12:21:47;101151.41;;;18.35;65.04
61472;BME280;47337;54.068;12.114;2023-05-24T12:24:17;101163.34;;;18.08;65.74
61472;BME280;47337;54.068;12.114;2023-05-24T12:26:49;101169.25;;;17.64;66.71
61472;BME280;47337;54.068;12.114;2023-05-24T12:29:15;101217.63;;;17.90;67.45
61472;BME280;47337;54.068;12.114;2023-05-24T12:31:43;101215.00;;;17.87;67.29
61472;BME280;47337;54.068;12.114;2023-05-24T12:34:13;101216.66;;;17.94;67.41
61472;BME280;47337;54.068;12.114;2023-05-24T12:36:40;101222.84;;;17.96;67.45
61472;BME280;47337;54.068;12.114;2023-05-24T12:39:20;101211.59;;;17.74;67.47
61472;BME280;47337;54.068;12.114;2023-05-24T12:41:53;101237.63;;;18.18;67.60
61472;BME280;47337;54.068;12.114;2023-05-24T12:44:26;101199.72;;;18.03;66.80
61472;BME280;47337;54.068;12.114;2023-05-24T12:46:53;101207.19;;;17.75;67.50
61472;BME280;47337;54.068;12.114;2023-05-24T12:49:19;101228.16;;;17.13;68.66
61472;BME280;47337;54.068;12.114;2023-05-24T12:51:47;101252.84;;;17.23;69.35
61472;BME280;47337;54.068;12.114;2023-05-24T12:54:17;101267.41;;;17.70;68.79
61472;BME280;47337;54.068;12.114;2023-05-24T12:56:43;101256.94;;;17.58;68.58
61472;BME280;47337;54.068;12.114;2023-05-24T12:59:11;101249.78;;;17.61;68.57